Flight Track Log - Related Links

Times and Time Zones

All times are in EDT time to prevent confusion due to time zone crossing. See the DAL1981 flight status page for this flight to view local times or setup timezone preferences in your user account.

Time Position Orientation Groundspeed Altitude Reporting Facility
EDT Latitude Longitude Course Direction KTS MPH feet Rate Location/Type
Thu 03:54:41 PM 38.6500 -121.5500 77° East 191 220 1,600  Level Northern Cal TRACON
Thu 03:55:41 PM 38.6000 -121.4833 134° Southeast 268 308 3,200 2,053 Climbing Northern Cal TRACON
Thu 03:56:35 PM 38.6000 -121.3833 90° East 283 326 5,500 2,438 Climbing Northern Cal TRACON
Thu 03:57:17 PM 38.6067 -121.3303 81° East 285 328 7,100 2,423 Climbing Oakland Center
Thu 03:58:19 PM 38.6167 -121.2292 83° East 286 329 9,700 1,854 Climbing Oakland Center
Thu 03:59:00 PM 38.5933 -120.7539 77° East  Level FlightAware Approximate
Thu 03:59:20 PM 38.6294 -121.1069 82° East 319 367 10,900  Level Oakland Center
Thu 04:00:22 PM 38.6433 -120.9725 82° East 368 423 12,000 1,561 Climbing Oakland Center
Thu 04:01:23 PM 38.6575 -120.8294 83° East 399 459 14,100 1,902 Climbing Oakland Center
Thu 04:02:25 PM 38.6711 -120.6831 83° East 411 473 15,900 1,707 Climbing Oakland Center
Thu 04:03:26 PM 38.7206 -120.5533 64° Northeast 419 482 17,600 1,463 Climbing Oakland Center
Thu 04:04:28 PM 38.8017 -120.4417 47° Northeast 426 490 18,900 1,561 Climbing Oakland Center
Thu 04:05:29 PM 38.9014 -120.3039 47° Northeast 438 504 20,800 1,512 Climbing Oakland Center
Thu 04:06:31 PM 38.9869 -120.1881 46° Northeast 443 510 22,000 1,122 Climbing Oakland Center
Thu 04:07:32 PM 39.0656 -120.0806 47° Northeast 450 518 23,100 1,073 Climbing Oakland Center
Thu 04:08:34 PM 39.1525 -119.9614 47° Northeast 456 525 24,200 1,122 Climbing Oakland Center
Thu 04:09:35 PM 39.2500 -119.8194 48° Northeast 461 531 25,400 927 Climbing Oakland Center
Thu 04:10:37 PM 39.3328 -119.7017 48° Northeast 462 532 26,100 629 Climbing Oakland Center
Thu 04:11:39 PM 39.4344 -119.5611 47° Northeast 477 549 26,700 732 Climbing Oakland Center
Thu 04:12:40 PM 39.5200 -119.4364 48° Northeast 481 554 27,600 1,033 Climbing Oakland Center
Thu 04:13:41 PM 39.6094 -119.3172 46° Northeast 478 550 28,800 1,073 Climbing Oakland Center
Thu 04:14:43 PM 39.7083 -119.1767 48° Northeast 474 545 29,800 829 Climbing Oakland Center
Thu 04:15:44 PM 39.7942 -119.0572 47° Northeast 473 544 30,500 732 Climbing Oakland Center
Thu 04:16:46 PM 39.8911 -118.9156 48° Northeast 471 542 31,300 634 Climbing Oakland Center
Thu 04:17:47 PM 39.9675 -118.7861 52° Northeast 476 548 31,800 488 Climbing Oakland Center
Thu 04:18:49 PM 40.0150 -118.6342 68° East 476 548 32,300 537 Climbing Oakland Center
Thu 04:19:50 PM 40.0706 -118.4556 68° East 475 547 32,900 537 Climbing Oakland Center
Thu 04:20:52 PM 40.1175 -118.3017 68° East 475 547 33,400 517 Climbing Oakland Center
Thu 04:21:46 PM 40.1639 -118.1492 68° East 475 547 33,900 634 Climbing Salt Lake Center
Thu 04:22:55 PM 40.2178 -117.9725 68° East 473 544 34,700 537 Climbing Oakland Center
Thu 04:23:49 PM 40.2636 -117.8217 68° East 469 540 35,000 155 Climbing Salt Lake Center
Thu 04:24:51 PM 40.3092 -117.6719 68° East 467 537 35,000  Level Salt Lake Center
Thu 04:25:52 PM 40.3619 -117.4972 68° East 464 534 35,000  Level Salt Lake Center
Thu 04:26:54 PM 40.4061 -117.3478 69° East 462 532 35,000  Level Salt Lake Center
Thu 04:27:56 PM 40.4511 -117.1983 68° East 462 532 35,000  Level Salt Lake Center
Thu 04:28:57 PM 40.5031 -117.0214 69° East 462 532 35,000  Level Salt Lake Center
Thu 04:29:59 PM 40.5478 -116.8681 69° East 461 531 35,000  Level Salt Lake Center
Thu 04:31:01 PM 40.5919 -116.7164 69° East 460 529 35,000  Level Salt Lake Center
Thu 04:32:03 PM 40.6422 -116.5406 69° East 459 528 35,000  Level Salt Lake Center
Thu 04:33:04 PM 40.6853 -116.3906 69° East 459 528 35,000  Level Salt Lake Center
Thu 04:34:06 PM 40.7353 -116.2147 69° East 459 528 35,000  Level Salt Lake Center
Thu 04:35:08 PM 40.7792 -116.0650 69° East 459 528 35,000  Level Salt Lake Center
Thu 04:36:09 PM 40.8217 -115.9144 69° East 459 528 35,000  Level Salt Lake Center
Thu 04:37:11 PM 40.8711 -115.7397 69° East 458 527 35,000  Level Salt Lake Center
Thu 04:38:12 PM 40.9131 -115.5883 70° East 458 527 35,000  Level Salt Lake Center
Thu 04:39:14 PM 40.9608 -115.4136 70° East 457 526 35,000  Level Salt Lake Center
Thu 04:40:16 PM 41.0019 -115.2636 70° East 456 525 35,000  Level Salt Lake Center
Thu 04:41:17 PM 41.0489 -115.0911 70° East 451 519 35,000  Level Salt Lake Center
Thu 04:42:19 PM 41.0900 -114.9442 70° East 448 516 35,000  Level Salt Lake Center
Thu 04:43:21 PM 41.1331 -114.7764 71° East 446 513 35,000  Level Salt Lake Center
Thu 04:44:22 PM 41.1753 -114.6225 70° East 446 513 35,000  Level Salt Lake Center
Thu 04:45:24 PM 41.2175 -114.4697 70° East 445 512 35,000  Level Salt Lake Center
Thu 04:46:26 PM 41.2567 -114.3158 71° East 444 511 35,000  Level Salt Lake Center
Thu 04:47:27 PM 41.2964 -114.1617 71° East 444 511 35,000  Level Salt Lake Center
Thu 04:48:29 PM 41.3378 -114.0081 70° East 443 510 35,000  Level Salt Lake Center
Thu 04:49:31 PM 41.3786 -113.8528 71° East 443 510 35,000  Level Salt Lake Center
Thu 04:50:32 PM 41.4258 -113.6639 72° East 444 511 35,000  Level Salt Lake Center
Thu 04:51:34 PM 41.4664 -113.5083 71° East 445 512 35,000  Level Salt Lake Center
Thu 04:52:36 PM 41.5047 -113.3514 72° East 445 512 35,000  Level Salt Lake Center
Thu 04:53:37 PM 41.5453 -113.1939 71° East 446 513 35,000  Level Salt Lake Center
Thu 04:54:39 PM 41.5844 -113.0375 71° East 446 513 35,000  Level Salt Lake Center
Thu 04:55:41 PM 41.6231 -112.8803 72° East 446 513 35,000  Level Salt Lake Center
Thu 04:56:42 PM 41.6619 -112.7244 71° East 446 513 35,000  Level Salt Lake Center
Thu 04:57:44 PM 41.7008 -112.5661 72° East 446 513 35,000  Level Salt Lake Center
Thu 04:58:46 PM 41.7461 -112.3775 72° East 445 512 35,000  Level Salt Lake Center
Thu 04:59:48 PM 41.7836 -112.2214 72° East 443 510 35,000  Level Salt Lake Center
Thu 05:00:49 PM 41.8219 -112.0642 72° East 442 509 35,000  Level Salt Lake Center
Thu 05:01:51 PM 41.8589 -111.9072 72° East 442 509 35,000  Level Salt Lake Center
Thu 05:02:53 PM 41.8969 -111.7489 72° East 442 509 35,000  Level Salt Lake Center
Thu 05:03:55 PM 41.9342 -111.5903 72° East 443 510 35,000  Level Salt Lake Center
Thu 05:04:56 PM 41.9708 -111.4322 73° East 443 510 35,000  Level Salt Lake Center
Thu 05:05:58 PM 42.0081 -111.2733 72° East 443 510 35,000  Level Salt Lake Center
Thu 05:07:00 PM 42.0514 -111.0825 73° East 443 510 35,000  Level Salt Lake Center
Thu 05:08:02 PM 42.0867 -110.9311 73° East 443 510 35,000  Level Salt Lake Center
Thu 05:09:03 PM 42.1211 -110.7794 73° East 443 510 35,000  Level Salt Lake Center
Thu 05:10:05 PM 42.1608 -110.6039 73° East 441 507 35,000  Level Salt Lake Center
Thu 05:11:07 PM 42.1944 -110.4528 73° East 440 506 35,000  Level Salt Lake Center
Thu 05:12:09 PM 42.2333 -110.2772 73° East 439 505 35,000  Level Salt Lake Center
Thu 05:13:10 PM 42.2656 -110.1272 74° East 434 499 35,000  Level Salt Lake Center
Thu 05:14:12 PM 42.3036 -109.9525 74° East 435 501 35,000  Level Salt Lake Center
Thu 05:15:14 PM 42.3356 -109.8042 74° East 433 498 35,000  Level Salt Lake Center
Thu 05:16:16 PM 42.3678 -109.6556 74° East 432 497 35,000  Level Salt Lake Center
Thu 05:17:17 PM 42.4067 -109.4811 73° East 431 496 35,000  Level Salt Lake Center
Thu 05:18:19 PM 42.4369 -109.3325 75° East 431 496 35,000 -48 Level Salt Lake Center
Thu 05:19:21 PM 42.4744 -109.1586 74° East 431 496 34,900  Descending Salt Lake Center
Thu 05:20:23 PM 42.5053 -109.0086 74° East 431 496 35,000 49 Climbing Salt Lake Center
Thu 05:21:24 PM 42.5375 -108.8578 74° East 431 496 35,000  Level Salt Lake Center
Thu 05:22:26 PM 42.5728 -108.6794 75° East 436 502 35,000  Level Salt Lake Center
Thu 05:23:28 PM 42.6031 -108.5294 75° East 435 501 35,000  Level Salt Lake Center
Thu 05:24:30 PM 42.6394 -108.3558 74° East 432 497 35,000  Level Salt Lake Center
Thu 05:25:32 PM 42.6686 -108.2036 75° East 432 497 35,000  Level Salt Lake Center
Thu 05:26:34 PM 42.7036 -108.0297 75° East 431 496 35,000  Level Salt Lake Center
Thu 05:27:35 PM 42.7328 -107.8797 75° East 427 491 35,000  Level Salt Lake Center
Thu 05:28:37 PM 42.7681 -107.7058 74° East 427 491 35,000  Level Salt Lake Center
Thu 05:29:39 PM 42.7975 -107.5556 75° East 428 493 35,000  Level Salt Lake Center
Thu 05:30:41 PM 42.8250 -107.4047 76° East 428 493 35,000 -48 Level Salt Lake Center
Thu 05:31:43 PM 42.8594 -107.2303 75° East 427 491 34,900  Descending Salt Lake Center
Thu 05:32:45 PM 42.8872 -107.0817 76° East 426 490 35,000 49 Climbing Salt Lake Center
Thu 05:33:46 PM 42.9194 -106.9078 76° East 428 493 35,000  Level Salt Lake Center
Thu 05:34:48 PM 42.9481 -106.7561 75° East 429 494 35,000  Level Salt Lake Center
Thu 05:35:50 PM 42.9811 -106.5803 76° East 429 494 35,000  Level Salt Lake Center
Thu 05:36:52 PM 43.0089 -106.4306 76° East 428 493 35,000  Level Salt Lake Center
Thu 05:37:54 PM 43.0400 -106.2553 76° East 426 490 35,000  Level Salt Lake Center
Thu 05:38:56 PM 43.0683 -106.1042 76° East 426 490 35,000  Level Salt Lake Center
Thu 05:39:57 PM 43.0956 -105.9514 76° East 427 491 35,000  Level Salt Lake Center
Thu 05:40:59 PM 43.1261 -105.7742 77° East 428 493 35,000  Level Salt Lake Center
Thu 05:42:29 PM 43.1664 -105.5464 76° East 428 493 35,000  Level Denver Center
Thu 05:43:31 PM 43.1969 -105.3703 77° East 428 493 35,000  Level Denver Center
Thu 05:44:33 PM 43.2231 -105.2172 77° East 428 493 35,000  Level Denver Center
Thu 05:45:35 PM 43.2528 -105.0411 77° East 428 493 35,000  Level Denver Center
Thu 05:46:37 PM 43.2778 -104.8900 77° East 426 490 35,000  Level Denver Center
Thu 05:47:39 PM 43.3039 -104.7378 77° East 426 490 35,000  Level Denver Center
Thu 05:48:41 PM 43.3336 -104.5628 77° East 425 489 35,000  Level Denver Center
Thu 05:49:44 PM 43.3567 -104.4133 78° East 421 484 35,000  Level Denver Center
Thu 05:50:45 PM 43.3853 -104.2381 77° East 421 484 35,000  Level Denver Center
Thu 05:51:47 PM 43.4100 -104.0892 77° East 421 484 35,000  Level Denver Center
Thu 05:52:49 PM 43.4375 -103.9150 78° East 420 483 35,000  Level Denver Center
Thu 05:53:51 PM 43.4611 -103.7658 78° East 419 482 35,000  Level Denver Center
Thu 05:54:54 PM 43.4886 -103.5917 78° East 418 481 35,000  Level Denver Center
Thu 05:55:56 PM 43.5125 -103.4425 77° East 418 481 35,000  Level Denver Center
Thu 05:56:58 PM 43.5383 -103.2692 78° East 417 480 35,000  Level Denver Center
Thu 05:58:00 PM 43.5594 -103.1172 79° East 419 482 35,000  Level Denver Center
Thu 05:59:02 PM 43.5825 -102.9675 78° East 419 482 35,000  Level Denver Center
Thu 06:00:04 PM 43.6086 -102.7922 78° East 419 482 35,000  Level Denver Center
Thu 06:01:06 PM 43.6306 -102.6408 79° East 419 482 35,000  Level Denver Center
Thu 06:02:08 PM 43.6572 -102.4658 78° East 418 481 35,000  Level Denver Center
Thu 06:03:10 PM 43.6769 -102.3158 80° East 418 481 35,000 -48 Level Denver Center
Thu 06:04:12 PM 43.7022 -102.1419 79° East 416 479 34,900  Descending Denver Center
Thu 06:05:14 PM 43.7231 -101.9928 79° East 416 479 35,000 48 Climbing Denver Center
Thu 06:06:16 PM 43.7447 -101.8333 79° East 420 483 35,000  Level Denver Center
Thu 06:07:18 PM 43.7711 -101.6431 79° East 420 483 35,000  Level Denver Center
Thu 06:08:21 PM 43.7922 -101.4814 80° East 424 488 35,000  Level Denver Center
Thu 06:09:23 PM 43.8139 -101.3200 79° East 427 491 35,000  Level Denver Center
Thu 06:10:25 PM 43.8356 -101.1594 79° East 427 491 35,000  Level Denver Center
Thu 06:11:27 PM 43.8569 -100.9967 80° East 431 496 35,000  Level Denver Center
Thu 06:12:29 PM 43.8781 -100.8353 80° East 430 495 35,000  Level Denver Center
Thu 06:13:31 PM 43.9036 -100.6389 80° East 431 496 35,000  Level Denver Center
Thu 06:14:33 PM 43.9242 -100.4747 80° East 433 498 35,000  Level Denver Center
Thu 06:15:54 PM 43.9522 -100.2464 80° East 433 498 35,000  Level Minneapolis Center
Thu 06:16:56 PM 43.9736 -100.0833 80° East 433 498 35,000  Level Minneapolis Center
Thu 06:17:58 PM 43.9931 -99.9186 81° East 433 498 35,000  Level Minneapolis Center
Thu 06:18:59 PM 44.0131 -99.7522 80° East 435 501 35,000  Level Minneapolis Center
Thu 06:20:02 PM 44.0331 -99.5864 80° East 435 501 35,000  Level Minneapolis Center
Thu 06:21:04 PM 44.0528 -99.4219 80° East 435 501 35,000  Level Minneapolis Center
Thu 06:22:06 PM 44.0744 -99.2242 81° East 435 501 35,000  Level Minneapolis Center
Thu 06:23:08 PM 44.0936 -99.0575 81° East 436 502 35,000  Level Minneapolis Center
Thu 06:24:09 PM 44.1131 -98.8900 81° East 436 502 35,000 -49 Level Minneapolis Center
Thu 06:25:11 PM 44.1308 -98.7239 81° East 436 502 34,900  Descending Minneapolis Center
Thu 06:26:13 PM 44.1508 -98.5406 81° East 442 509 35,000 48 Climbing Minneapolis Center
Thu 06:27:15 PM 44.1697 -98.3711 81° East 443 510 35,000  Level Minneapolis Center
Thu 06:28:17 PM 44.1872 -98.2014 82° East 443 510 35,000  Level Minneapolis Center
Thu 06:29:19 PM 44.2053 -98.0306 82° East 444 511 35,000  Level Minneapolis Center
Thu 06:30:21 PM 44.2253 -97.8261 82° East 444 511 35,000  Level Minneapolis Center
Thu 06:31:22 PM 44.2425 -97.6564 82° East 445 512 35,000  Level Minneapolis Center
Thu 06:32:24 PM 44.2586 -97.4864 82° East 444 511 35,000  Level Minneapolis Center
Thu 06:33:26 PM 44.2758 -97.3158 82° East 445 512 35,000  Level Minneapolis Center
Thu 06:34:28 PM 44.2928 -97.1444 82° East 445 512 35,000  Level Minneapolis Center
Thu 06:35:30 PM 44.3086 -96.9717 83° East 446 513 35,000  Level Minneapolis Center
Thu 06:36:32 PM 44.3244 -96.7994 83° East 446 513 35,000  Level Minneapolis Center
Thu 06:37:34 PM 44.3444 -96.5917 82° East 446 513 35,000  Level Minneapolis Center
Thu 06:38:36 PM 44.3594 -96.4186 83° East 446 513 35,000 -339 Level Minneapolis Center
Thu 06:39:38 PM 44.3753 -96.2431 83° East 447 514 34,300 -823 Descending Minneapolis Center
Thu 06:40:40 PM 44.3911 -96.0681 83° East 447 514 33,300 -919 Descending Minneapolis Center
Thu 06:41:42 PM 44.4061 -95.8944 83° East 447 514 32,400 -919 Descending Minneapolis Center
Thu 06:42:44 PM 44.4211 -95.7214 83° East 447 514 31,400 -968 Descending Minneapolis Center
Thu 06:43:46 PM 44.4353 -95.5506 83° East 446 513 30,400 -960 Descending Minneapolis Center
Thu 06:44:49 PM 44.4497 -95.3731 83° East 454 522 29,400 -1,056 Descending Minneapolis Center
Thu 06:45:51 PM 44.4675 -95.1550 83° East 467 537 28,200 -1,161 Descending Minneapolis Center
Thu 06:46:53 PM 44.5036 -94.9778 74° East 470 541 27,000 -2,081 Descending Minneapolis Center
Thu 06:47:55 PM 44.5461 -94.8061 71° East 470 541 23,900 -3,145 Descending Minneapolis Center
Thu 06:48:57 PM 44.5875 -94.6294 72° East 447 514 20,500 -3,097 Descending Minneapolis Center
Thu 06:49:59 PM 44.6211 -94.4739 73° East 420 483 17,500 -2,903 Descending Minneapolis Center
Thu 06:51:01 PM 44.6558 -94.3244 72° East 404 465 14,500 -2,903 Descending Minneapolis Center
Thu 06:52:03 PM 44.6892 -94.1781 72° East 397 457 11,500 -1,645 Descending Minneapolis Center
Thu 06:53:05 PM 44.7211 -94.0344 73° East 391 450 11,100 -240 Descending Minneapolis Center
Thu 06:54:08 PM 44.7597 -93.8617 72° East 383 441 11,000 -48 Descending Minneapolis Center
Thu 06:55:10 PM 44.7925 -93.7161 72° East 387 445 11,000 -145 Level Minneapolis Center
Thu 06:56:12 PM 44.8239 -93.5742 73° East 382 440 10,700 -677 Descending Minneapolis Center
Thu 06:57:14 PM 44.8497 -93.4533 73° East 322 371 9,600 -919 Descending Minneapolis Center
Thu 06:58:16 PM 44.8400 -93.3528 98° East 278 320 8,800 -774 Descending Minneapolis Center
Thu 06:59:18 PM 44.8003 -93.2686 124° Southeast 261 300 8,000 -387 Descending Minneapolis Center
Thu 07:00:20 PM 44.7586 -93.1797 123° Southeast 260 299 8,000  Level Minneapolis Center
Thu 07:01:22 PM 44.7183 -93.0939 123° Southeast 260 299 8,000  Level Minneapolis Center
Thu 07:02:24 PM 44.6817 -93.0083 121° Southeast 259 298 8,000 -484 Level Minneapolis Center
Thu 07:03:26 PM 44.6650 -92.9044 103° East 237 273 7,000 -960 Descending Minneapolis Center
Thu 07:04:29 PM 44.7100 -92.8597 35° Northeast 202 232 6,000 -528 Descending Minneapolis Center
Thu 07:05:31 PM 44.7431 -92.8781 338° Northwest 178 205 5,900 -484 Descending Minneapolis Center
Thu 07:06:33 PM 44.7586 -92.9378 290° West 169 194 5,000 -774 Descending Minneapolis Center
Thu 07:07:35 PM 44.7850 -92.9975 302° West 175 201 4,300 -919 Descending Minneapolis Center
Thu 07:08:37 PM 44.8153 -93.0672 301° West 176 203 3,100 -968 Descending Minneapolis Center
Thu 07:09:39 PM 44.8358 -93.1150 301° West 146 168 2,300 -774 Descending Minneapolis Center
Thu 07:10:41 PM 44.8553 -93.1589 302° West 138 159 1,500 -774 Descending Minneapolis Center
Thu 07:12:00 PM 44.8667 -93.2167 308° West  Level FlightAware Approximate
Thu 07:19:00 PM 44.8820 -93.2218 308° West  Level Estimated

Login

Don't have an account? Register now (free) for customized features, flight alerts, and more!